sensor_id;sensor_type;location;lat;lon;timestamp;P1;durP1;ratioP1;P2;durP2;ratioP2
80404;SDS011;69733;48.744;9.176;2023-05-28T00:00:32;7.00;;;2.53;;
80404;SDS011;69733;48.744;9.176;2023-05-28T00:02:57;4.40;;;2.33;;
80404;SDS011;69733;48.744;9.176;2023-05-28T00:05:22;7.00;;;2.60;;
80404;SDS011;69733;48.744;9.176;2023-05-28T00:07:48;7.97;;;2.33;;
80404;SDS011;69733;48.744;9.176;2023-05-28T00:10:13;4.90;;;2.75;;
80404;SDS011;69733;48.744;9.176;2023-05-28T00:12:38;6.05;;;2.17;;
80404;SDS011;69733;48.744;9.176;2023-05-28T00:15:04;5.57;;;2.17;;
80404;SDS011;69733;48.744;9.176;2023-05-28T00:17:30;5.68;;;2.83;;
80404;SDS011;69733;48.744;9.176;2023-05-28T00:19:56;5.88;;;2.33;;
80404;SDS011;69733;48.744;9.176;2023-05-28T00:22:21;4.40;;;1.83;;
80404;SDS011;69733;48.744;9.176;2023-05-28T00:24:46;5.50;;;2.80;;
80404;SDS011;69733;48.744;9.176;2023-05-28T00:27:12;4.10;;;2.20;;
80404;SDS011;69733;48.744;9.176;2023-05-28T00:29:37;5.93;;;2.43;;
80404;SDS011;69733;48.744;9.176;2023-05-28T00:32:02;5.87;;;2.57;;
80404;SDS011;69733;48.744;9.176;2023-05-28T00:34:27;5.85;;;2.83;;
80404;SDS011;69733;48.744;9.176;2023-05-28T00:36:53;9.07;;;2.83;;
80404;SDS011;69733;48.744;9.176;2023-05-28T00:39:18;4.75;;;2.38;;
80404;SDS011;69733;48.744;9.176;2023-05-28T00:41:44;5.40;;;2.53;;
80404;SDS011;69733;48.744;9.176;2023-05-28T00:44:10;7.45;;;2.60;;
80404;SDS011;69733;48.744;9.176;2023-05-28T00:46:36;6.85;;;2.67;;
80404;SDS011;69733;48.744;9.176;2023-05-28T00:49:05;6.05;;;2.60;;
80404;SDS011;69733;48.744;9.176;2023-05-28T00:51:30;6.18;;;2.47;;
80404;SDS011;69733;48.744;9.176;2023-05-28T00:53:56;7.18;;;2.63;;
80404;SDS011;69733;48.744;9.176;2023-05-28T00:56:22;5.80;;;2.92;;
80404;SDS011;69733;48.744;9.176;2023-05-28T00:58:51;5.63;;;2.03;;
80404;SDS011;69733;48.744;9.176;2023-05-28T01:01:17;6.47;;;2.40;;
80404;SDS011;69733;48.744;9.176;2023-05-28T01:03:43;5.80;;;2.67;;
80404;SDS011;69733;48.744;9.176;2023-05-28T01:06:10;6.60;;;2.67;;
80404;SDS011;69733;48.744;9.176;2023-05-28T01:08:37;6.03;;;3.15;;
80404;SDS011;69733;48.744;9.176;2023-05-28T01:11:04;5.70;;;2.85;;
80404;SDS011;69733;48.744;9.176;2023-05-28T01:13:31;8.55;;;2.70;;
80404;SDS011;69733;48.744;9.176;2023-05-28T01:16:00;7.10;;;2.90;;
80404;SDS011;69733;48.744;9.176;2023-05-28T01:18:26;5.80;;;2.20;;
80404;SDS011;69733;48.744;9.176;2023-05-28T01:23:20;5.50;;;2.35;;
80404;SDS011;69733;48.744;9.176;2023-05-28T01:25:51;6.57;;;2.60;;
80404;SDS011;69733;48.744;9.176;2023-05-28T01:28:24;7.90;;;2.78;;
80404;SDS011;69733;48.744;9.176;2023-05-28T01:30:50;5.45;;;2.50;;
80404;SDS011;69733;48.744;9.176;2023-05-28T01:33:18;5.28;;;2.90;;
80404;SDS011;69733;48.744;9.176;2023-05-28T01:35:46;4.88;;;2.28;;
80404;SDS011;69733;48.744;9.176;2023-05-28T01:38:14;6.22;;;2.95;;
80404;SDS011;69733;48.744;9.176;2023-05-28T01:41:01;5.63;;;2.50;;
80404;SDS011;69733;48.744;9.176;2023-05-28T01:43:27;9.43;;;2.70;;
80404;SDS011;69733;48.744;9.176;2023-05-28T01:45:53;6.15;;;2.65;;
80404;SDS011;69733;48.744;9.176;2023-05-28T01:48:19;7.70;;;3.03;;
80404;SDS011;69733;48.744;9.176;2023-05-28T01:50:46;8.10;;;3.10;;
80404;SDS011;69733;48.744;9.176;2023-05-28T01:53:14;7.05;;;2.83;;
80404;SDS011;69733;48.744;9.176;2023-05-28T01:55:39;6.13;;;2.80;;
80404;SDS011;69733;48.744;9.176;2023-05-28T01:58:05;6.95;;;2.40;;
80404;SDS011;69733;48.744;9.176;2023-05-28T02:00:31;5.80;;;2.95;;
80404;SDS011;69733;48.744;9.176;2023-05-28T02:03:00;6.40;;;2.90;;
80404;SDS011;69733;48.744;9.176;2023-05-28T02:05:25;8.70;;;3.03;;
80404;SDS011;69733;48.744;9.176;2023-05-28T02:07:51;7.80;;;3.25;;
80404;SDS011;69733;48.744;9.176;2023-05-28T02:10:17;8.15;;;3.42;;
80404;SDS011;69733;48.744;9.176;2023-05-28T02:12:46;9.15;;;3.55;;
80404;SDS011;69733;48.744;9.176;2023-05-28T02:15:19;5.60;;;2.87;;
80404;SDS011;69733;48.744;9.176;2023-05-28T02:17:45;6.22;;;3.42;;
80404;SDS011;69733;48.744;9.176;2023-05-28T02:20:11;5.18;;;3.10;;
80404;SDS011;69733;48.744;9.176;2023-05-28T02:22:37;6.32;;;2.80;;
80404;SDS011;69733;48.744;9.176;2023-05-28T02:25:05;5.57;;;3.08;;
80404;SDS011;69733;48.744;9.176;2023-05-28T02:27:31;7.18;;;3.05;;
80404;SDS011;69733;48.744;9.176;2023-05-28T02:29:59;8.70;;;2.80;;
80404;SDS011;69733;48.744;9.176;2023-05-28T02:32:25;7.88;;;2.50;;
80404;SDS011;69733;48.744;9.176;2023-05-28T02:34:50;11.35;;;3.30;;
80404;SDS011;69733;48.744;9.176;2023-05-28T02:37:19;6.13;;;3.00;;
80404;SDS011;69733;48.744;9.176;2023-05-28T02:39:46;9.20;;;3.13;;
80404;SDS011;69733;48.744;9.176;2023-05-28T02:42:14;7.47;;;3.35;;
80404;SDS011;69733;48.744;9.176;2023-05-28T02:44:46;9.10;;;3.35;;
80404;SDS011;69733;48.744;9.176;2023-05-28T02:47:11;4.95;;;2.92;;
80404;SDS011;69733;48.744;9.176;2023-05-28T02:49:36;5.23;;;2.57;;
80404;SDS011;69733;48.744;9.176;2023-05-28T02:52:01;7.05;;;3.05;;
80404;SDS011;69733;48.744;9.176;2023-05-28T02:54:27;7.57;;;2.95;;
80404;SDS011;69733;48.744;9.176;2023-05-28T02:56:55;6.38;;;3.15;;
80404;SDS011;69733;48.744;9.176;2023-05-28T02:59:20;7.28;;;3.20;;
80404;SDS011;69733;48.744;9.176;2023-05-28T03:01:45;6.00;;;3.17;;
80404;SDS011;69733;48.744;9.176;2023-05-28T03:04:11;6.30;;;3.07;;
80404;SDS011;69733;48.744;9.176;2023-05-28T03:06:36;7.33;;;3.00;;
80404;SDS011;69733;48.744;9.176;2023-05-28T03:09:02;6.67;;;3.10;;
80404;SDS011;69733;48.744;9.176;2023-05-28T03:11:27;7.82;;;2.90;;
80404;SDS011;69733;48.744;9.176;2023-05-28T03:13:52;6.53;;;2.83;;
80404;SDS011;69733;48.744;9.176;2023-05-28T03:16:18;6.00;;;3.33;;
80404;SDS011;69733;48.744;9.176;2023-05-28T03:18:43;10.23;;;3.90;;
80404;SDS011;69733;48.744;9.176;2023-05-28T03:21:08;7.57;;;3.37;;
80404;SDS011;69733;48.744;9.176;2023-05-28T03:23:34;7.63;;;3.13;;
80404;SDS011;69733;48.744;9.176;2023-05-28T03:25:59;6.15;;;3.08;;
80404;SDS011;69733;48.744;9.176;2023-05-28T03:28:25;5.85;;;3.22;;
80404;SDS011;69733;48.744;9.176;2023-05-28T03:30:50;6.47;;;2.67;;
80404;SDS011;69733;48.744;9.176;2023-05-28T03:33:15;8.57;;;3.42;;
80404;SDS011;69733;48.744;9.176;2023-05-28T03:35:41;8.50;;;2.80;;
80404;SDS011;69733;48.744;9.176;2023-05-28T03:38:06;8.55;;;3.42;;
80404;SDS011;69733;48.744;9.176;2023-05-28T03:40:34;7.53;;;3.00;;
80404;SDS011;69733;48.744;9.176;2023-05-28T03:43:02;6.75;;;2.90;;
80404;SDS011;69733;48.744;9.176;2023-05-28T03:45:30;6.55;;;2.47;;
80404;SDS011;69733;48.744;9.176;2023-05-28T03:47:55;8.43;;;2.97;;
80404;SDS011;69733;48.744;9.176;2023-05-28T03:50:20;8.30;;;3.10;;
80404;SDS011;69733;48.744;9.176;2023-05-28T03:52:46;9.43;;;3.00;;
80404;SDS011;69733;48.744;9.176;2023-05-28T03:55:11;7.43;;;2.80;;
80404;SDS011;69733;48.744;9.176;2023-05-28T03:57:36;6.07;;;2.75;;
80404;SDS011;69733;48.744;9.176;2023-05-28T04:00:25;6.22;;;3.00;;
80404;SDS011;69733;48.744;9.176;2023-05-28T04:02:50;9.90;;;3.23;;
80404;SDS011;69733;48.744;9.176;2023-05-28T04:05:15;8.30;;;3.23;;
80404;SDS011;69733;48.744;9.176;2023-05-28T04:07:40;7.18;;;2.60;;
80404;SDS011;69733;48.744;9.176;2023-05-28T04:10:06;7.95;;;3.28;;
80404;SDS011;69733;48.744;9.176;2023-05-28T04:12:32;6.00;;;2.88;;
80404;SDS011;69733;48.744;9.176;2023-05-28T04:14:57;6.00;;;2.53;;
80404;SDS011;69733;48.744;9.176;2023-05-28T04:17:23;4.88;;;2.90;;
80404;SDS011;69733;48.744;9.176;2023-05-28T04:19:49;6.40;;;2.88;;
80404;SDS011;69733;48.744;9.176;2023-05-28T04:22:16;5.25;;;2.53;;
80404;SDS011;69733;48.744;9.176;2023-05-28T04:24:41;7.32;;;2.78;;
80404;SDS011;69733;48.744;9.176;2023-05-28T04:27:06;7.03;;;3.13;;
80404;SDS011;69733;48.744;9.176;2023-05-28T04:29:32;5.87;;;2.60;;
80404;SDS011;69733;48.744;9.176;2023-05-28T04:31:58;5.95;;;2.55;;
80404;SDS011;69733;48.744;9.176;2023-05-28T04:34:23;5.55;;;2.60;;
80404;SDS011;69733;48.744;9.176;2023-05-28T04:39:43;6.47;;;2.38;;
80404;SDS011;69733;48.744;9.176;2023-05-28T04:42:08;9.38;;;2.97;;
80404;SDS011;69733;48.744;9.176;2023-05-28T04:44:38;6.03;;;2.47;;
80404;SDS011;69733;48.744;9.176;2023-05-28T04:47:05;5.57;;;2.13;;
80404;SDS011;69733;48.744;9.176;2023-05-28T04:49:31;5.88;;;2.72;;
80404;SDS011;69733;48.744;9.176;2023-05-28T04:51:59;6.45;;;2.47;;
80404;SDS011;69733;48.744;9.176;2023-05-28T04:54:24;6.43;;;2.42;;
80404;SDS011;69733;48.744;9.176;2023-05-28T04:56:51;4.03;;;2.13;;
80404;SDS011;69733;48.744;9.176;2023-05-28T04:59:22;6.13;;;2.78;;
80404;SDS011;69733;48.744;9.176;2023-05-28T05:01:48;6.30;;;2.45;;
80404;SDS011;69733;48.744;9.176;2023-05-28T05:04:13;5.90;;;2.50;;
80404;SDS011;69733;48.744;9.176;2023-05-28T05:06:39;4.60;;;2.45;;
80404;SDS011;69733;48.744;9.176;2023-05-28T05:09:04;5.28;;;2.70;;
80404;SDS011;69733;48.744;9.176;2023-05-28T05:11:33;4.78;;;2.42;;
80404;SDS011;69733;48.744;9.176;2023-05-28T05:13:58;6.10;;;2.58;;
80404;SDS011;69733;48.744;9.176;2023-05-28T05:16:24;7.60;;;2.92;;
80404;SDS011;69733;48.744;9.176;2023-05-28T05:18:50;8.30;;;2.58;;
80404;SDS011;69733;48.744;9.176;2023-05-28T05:21:15;7.20;;;2.92;;
80404;SDS011;69733;48.744;9.176;2023-05-28T05:23:43;6.00;;;3.10;;
80404;SDS011;69733;48.744;9.176;2023-05-28T05:26:31;6.95;;;3.50;;
80404;SDS011;69733;48.744;9.176;2023-05-28T05:28:57;6.43;;;2.80;;
80404;SDS011;69733;48.744;9.176;2023-05-28T05:31:22;6.97;;;2.90;;
80404;SDS011;69733;48.744;9.176;2023-05-28T05:33:47;6.07;;;2.95;;
80404;SDS011;69733;48.744;9.176;2023-05-28T05:36:12;6.87;;;2.60;;
80404;SDS011;69733;48.744;9.176;2023-05-28T05:38:38;6.53;;;2.43;;
80404;SDS011;69733;48.744;9.176;2023-05-28T05:41:06;7.30;;;3.13;;
80404;SDS011;69733;48.744;9.176;2023-05-28T05:43:31;6.50;;;2.78;;
80404;SDS011;69733;48.744;9.176;2023-05-28T05:45:56;6.23;;;2.80;;
80404;SDS011;69733;48.744;9.176;2023-05-28T05:48:28;7.20;;;3.30;;
80404;SDS011;69733;48.744;9.176;2023-05-28T05:50:54;7.57;;;3.30;;
80404;SDS011;69733;48.744;9.176;2023-05-28T05:53:20;6.28;;;3.15;;
80404;SDS011;69733;48.744;9.176;2023-05-28T05:55:46;5.97;;;2.97;;
80404;SDS011;69733;48.744;9.176;2023-05-28T05:58:37;5.68;;;3.20;;
80404;SDS011;69733;48.744;9.176;2023-05-28T06:01:03;6.85;;;3.25;;
80404;SDS011;69733;48.744;9.176;2023-05-28T06:03:29;5.13;;;2.65;;
80404;SDS011;69733;48.744;9.176;2023-05-28T06:05:55;7.93;;;3.45;;
80404;SDS011;69733;48.744;9.176;2023-05-28T06:08:24;6.05;;;2.97;;
80404;SDS011;69733;48.744;9.176;2023-05-28T06:10:52;5.72;;;3.08;;
80404;SDS011;69733;48.744;9.176;2023-05-28T06:13:18;6.13;;;3.47;;
80404;SDS011;69733;48.744;9.176;2023-05-28T06:15:43;5.95;;;3.65;;
80404;SDS011;69733;48.744;9.176;2023-05-28T06:18:10;6.90;;;3.10;;
80404;SDS011;69733;48.744;9.176;2023-05-28T06:20:36;6.82;;;3.50;;
80404;SDS011;69733;48.744;9.176;2023-05-28T06:23:01;6.45;;;3.70;;
80404;SDS011;69733;48.744;9.176;2023-05-28T06:25:27;6.67;;;3.37;;
80404;SDS011;69733;48.744;9.176;2023-05-28T06:27:55;5.15;;;3.22;;
80404;SDS011;69733;48.744;9.176;2023-05-28T06:30:21;6.00;;;3.47;;
80404;SDS011;69733;48.744;9.176;2023-05-28T06:32:47;5.55;;;3.40;;
80404;SDS011;69733;48.744;9.176;2023-05-28T06:35:13;8.50;;;3.70;;
80404;SDS011;69733;48.744;9.176;2023-05-28T06:37:38;5.82;;;3.13;;
80404;SDS011;69733;48.744;9.176;2023-05-28T06:40:04;7.72;;;3.22;;
80404;SDS011;69733;48.744;9.176;2023-05-28T06:42:31;7.72;;;3.20;;
80404;SDS011;69733;48.744;9.176;2023-05-28T06:44:57;6.65;;;3.42;;
80404;SDS011;69733;48.744;9.176;2023-05-28T06:47:24;7.45;;;3.60;;
80404;SDS011;69733;48.744;9.176;2023-05-28T06:49:49;7.47;;;3.60;;
80404;SDS011;69733;48.744;9.176;2023-05-28T06:52:15;7.60;;;3.67;;
80404;SDS011;69733;48.744;9.176;2023-05-28T06:54:40;5.78;;;3.25;;
80404;SDS011;69733;48.744;9.176;2023-05-28T06:57:06;5.60;;;3.25;;
80404;SDS011;69733;48.744;9.176;2023-05-28T06:59:31;7.97;;;3.75;;
80404;SDS011;69733;48.744;9.176;2023-05-28T07:01:57;6.47;;;3.20;;
80404;SDS011;69733;48.744;9.176;2023-05-28T07:04:22;6.43;;;3.43;;
80404;SDS011;69733;48.744;9.176;2023-05-28T07:06:47;9.00;;;3.70;;
80404;SDS011;69733;48.744;9.176;2023-05-28T07:09:13;5.90;;;3.10;;
80404;SDS011;69733;48.744;9.176;2023-05-28T07:11:38;7.60;;;3.55;;
80404;SDS011;69733;48.744;9.176;2023-05-28T07:14:03;6.47;;;3.40;;
80404;SDS011;69733;48.744;9.176;2023-05-28T07:16:28;7.50;;;3.43;;
80404;SDS011;69733;48.744;9.176;2023-05-28T07:18:54;7.43;;;4.10;;
80404;SDS011;69733;48.744;9.176;2023-05-28T07:21:19;7.17;;;3.50;;
80404;SDS011;69733;48.744;9.176;2023-05-28T07:23:45;6.72;;;3.35;;
80404;SDS011;69733;48.744;9.176;2023-05-28T07:26:14;6.72;;;3.70;;
80404;SDS011;69733;48.744;9.176;2023-05-28T07:28:39;8.93;;;3.93;;
80404;SDS011;69733;48.744;9.176;2023-05-28T07:31:07;8.73;;;3.90;;
80404;SDS011;69733;48.744;9.176;2023-05-28T07:33:32;7.20;;;3.50;;
80404;SDS011;69733;48.744;9.176;2023-05-28T07:35:58;7.55;;;3.47;;
80404;SDS011;69733;48.744;9.176;2023-05-28T07:38:23;5.97;;;3.53;;
80404;SDS011;69733;48.744;9.176;2023-05-28T07:40:49;6.87;;;3.30;;
80404;SDS011;69733;48.744;9.176;2023-05-28T07:43:15;7.82;;;3.47;;
80404;SDS011;69733;48.744;9.176;2023-05-28T07:45:40;8.80;;;4.00;;
80404;SDS011;69733;48.744;9.176;2023-05-28T07:48:05;7.07;;;4.18;;
80404;SDS011;69733;48.744;9.176;2023-05-28T07:50:31;6.70;;;3.75;;
80404;SDS011;69733;48.744;9.176;2023-05-28T07:52:56;9.05;;;3.78;;
80404;SDS011;69733;48.744;9.176;2023-05-28T07:55:22;6.75;;;4.13;;
80404;SDS011;69733;48.744;9.176;2023-05-28T07:57:48;6.82;;;3.35;;
80404;SDS011;69733;48.744;9.176;2023-05-28T08:00:14;7.30;;;3.63;;
80404;SDS011;69733;48.744;9.176;2023-05-28T08:02:44;7.60;;;4.18;;
80404;SDS011;69733;48.744;9.176;2023-05-28T08:05:10;7.10;;;3.88;;
80404;SDS011;69733;48.744;9.176;2023-05-28T08:07:36;7.50;;;3.70;;
80404;SDS011;69733;48.744;9.176;2023-05-28T08:10:02;7.90;;;3.80;;
80404;SDS011;69733;48.744;9.176;2023-05-28T08:12:30;8.52;;;4.20;;
80404;SDS011;69733;48.744;9.176;2023-05-28T08:14:56;8.98;;;4.80;;
80404;SDS011;69733;48.744;9.176;2023-05-28T08:17:21;8.52;;;4.25;;
80404;SDS011;69733;48.744;9.176;2023-05-28T08:19:47;7.80;;;3.80;;
80404;SDS011;69733;48.744;9.176;2023-05-28T08:22:13;8.35;;;4.32;;
80404;SDS011;69733;48.744;9.176;2023-05-28T08:24:39;8.65;;;4.07;;
80404;SDS011;69733;48.744;9.176;2023-05-28T08:27:04;7.10;;;3.43;;
80404;SDS011;69733;48.744;9.176;2023-05-28T08:29:30;7.82;;;4.20;;
80404;SDS011;69733;48.744;9.176;2023-05-28T08:31:56;5.97;;;3.80;;
80404;SDS011;69733;48.744;9.176;2023-05-28T08:34:22;7.70;;;3.92;;
80404;SDS011;69733;48.744;9.176;2023-05-28T08:36:48;7.45;;;3.80;;
80404;SDS011;69733;48.744;9.176;2023-05-28T08:39:13;8.43;;;4.25;;
80404;SDS011;69733;48.744;9.176;2023-05-28T08:41:39;8.23;;;3.60;;
80404;SDS011;69733;48.744;9.176;2023-05-28T08:44:04;9.68;;;4.18;;
80404;SDS011;69733;48.744;9.176;2023-05-28T08:46:30;7.75;;;4.55;;
80404;SDS011;69733;48.744;9.176;2023-05-28T08:48:57;7.22;;;4.03;;
80404;SDS011;69733;48.744;9.176;2023-05-28T08:51:23;6.88;;;3.53;;
80404;SDS011;69733;48.744;9.176;2023-05-28T08:53:52;8.25;;;3.67;;
80404;SDS011;69733;48.744;9.176;2023-05-28T08:56:20;7.80;;;3.80;;
80404;SDS011;69733;48.744;9.176;2023-05-28T08:58:46;7.93;;;3.42;;
80404;SDS011;69733;48.744;9.176;2023-05-28T09:01:11;10.48;;;3.60;;
80404;SDS011;69733;48.744;9.176;2023-05-28T09:03:40;6.93;;;3.70;;
80404;SDS011;69733;48.744;9.176;2023-05-28T09:06:06;7.05;;;3.50;;
80404;SDS011;69733;48.744;9.176;2023-05-28T09:08:32;7.50;;;3.65;;
80404;SDS011;69733;48.744;9.176;2023-05-28T09:10:58;6.00;;;3.35;;
80404;SDS011;69733;48.744;9.176;2023-05-28T09:13:34;8.20;;;4.05;;
80404;SDS011;69733;48.744;9.176;2023-05-28T09:15:59;6.15;;;4.13;;
80404;SDS011;69733;48.744;9.176;2023-05-28T09:18:24;7.07;;;4.13;;
80404;SDS011;69733;48.744;9.176;2023-05-28T09:20:50;7.85;;;3.90;;
80404;SDS011;69733;48.744;9.176;2023-05-28T09:23:17;7.93;;;3.72;;
80404;SDS011;69733;48.744;9.176;2023-05-28T09:25:46;6.78;;;3.70;;
80404;SDS011;69733;48.744;9.176;2023-05-28T09:28:12;6.53;;;3.72;;
80404;SDS011;69733;48.744;9.176;2023-05-28T09:30:40;8.15;;;3.70;;
80404;SDS011;69733;48.744;9.176;2023-05-28T09:33:07;7.03;;;3.60;;
80404;SDS011;69733;48.744;9.176;2023-05-28T09:38:04;7.57;;;3.70;;
80404;SDS011;69733;48.744;9.176;2023-05-28T09:40:38;8.98;;;3.88;;
80404;SDS011;69733;48.744;9.176;2023-05-28T09:43:05;7.78;;;4.00;;
80404;SDS011;69733;48.744;9.176;2023-05-28T09:45:33;7.05;;;3.70;;
80404;SDS011;69733;48.744;9.176;2023-05-28T09:48:00;6.75;;;3.33;;
80404;SDS011;69733;48.744;9.176;2023-05-28T09:50:26;7.57;;;3.72;;
80404;SDS011;69733;48.744;9.176;2023-05-28T09:52:54;6.60;;;3.22;;
80404;SDS011;69733;48.744;9.176;2023-05-28T09:55:20;7.88;;;3.55;;
80404;SDS011;69733;48.744;9.176;2023-05-28T10:00:22;8.43;;;4.50;;
80404;SDS011;69733;48.744;9.176;2023-05-28T10:03:00;6.05;;;3.35;;
80404;SDS011;69733;48.744;9.176;2023-05-28T10:05:39;5.90;;;3.60;;
80404;SDS011;69733;48.744;9.176;2023-05-28T10:08:07;6.68;;;3.50;;
80404;SDS011;69733;48.744;9.176;2023-05-28T10:10:36;9.15;;;3.90;;
80404;SDS011;69733;48.744;9.176;2023-05-28T10:13:05;8.20;;;4.03;;
80404;SDS011;69733;48.744;9.176;2023-05-28T10:15:33;8.13;;;4.05;;
80404;SDS011;69733;48.744;9.176;2023-05-28T10:18:00;6.97;;;3.72;;
80404;SDS011;69733;48.744;9.176;2023-05-28T10:20:26;7.57;;;4.00;;
80404;SDS011;69733;48.744;9.176;2023-05-28T10:22:54;9.10;;;4.25;;
80404;SDS011;69733;48.744;9.176;2023-05-28T10:25:23;7.88;;;3.88;;
80404;SDS011;69733;48.744;9.176;2023-05-28T10:27:49;7.10;;;3.60;;
80404;SDS011;69733;48.744;9.176;2023-05-28T10:30:30;8.32;;;3.80;;
80404;SDS011;69733;48.744;9.176;2023-05-28T10:32:57;7.22;;;3.85;;
80404;SDS011;69733;48.744;9.176;2023-05-28T10:35:25;5.15;;;3.20;;
80404;SDS011;69733;48.744;9.176;2023-05-28T10:38:01;5.60;;;3.28;;
80404;SDS011;69733;48.744;9.176;2023-05-28T10:40:28;7.95;;;4.03;;
80404;SDS011;69733;48.744;9.176;2023-05-28T10:42:53;7.90;;;4.22;;
80404;SDS011;69733;48.744;9.176;2023-05-28T10:45:19;7.10;;;4.00;;
80404;SDS011;69733;48.744;9.176;2023-05-28T10:47:59;5.60;;;3.40;;
80404;SDS011;69733;48.744;9.176;2023-05-28T10:50:25;5.73;;;2.97;;
80404;SDS011;69733;48.744;9.176;2023-05-28T10:53:03;5.23;;;2.90;;
80404;SDS011;69733;48.744;9.176;2023-05-28T11:01:04;6.47;;;3.28;;
80404;SDS011;69733;48.744;9.176;2023-05-28T11:03:55;8.55;;;2.80;;
80404;SDS011;69733;48.744;9.176;2023-05-28T11:06:20;10.18;;;2.90;;
80404;SDS011;69733;48.744;9.176;2023-05-28T11:08:46;6.88;;;3.00;;
80404;SDS011;69733;48.744;9.176;2023-05-28T11:11:14;5.45;;;2.78;;
80404;SDS011;69733;48.744;9.176;2023-05-28T11:13:41;10.05;;;3.28;;
80404;SDS011;69733;48.744;9.176;2023-05-28T11:16:11;6.18;;;3.08;;
80404;SDS011;69733;48.744;9.176;2023-05-28T11:18:39;6.85;;;3.00;;
80404;SDS011;69733;48.744;9.176;2023-05-28T11:21:08;6.68;;;2.95;;
80404;SDS011;69733;48.744;9.176;2023-05-28T11:23:36;6.10;;;3.13;;
80404;SDS011;69733;48.744;9.176;2023-05-28T11:26:03;5.22;;;3.05;;
80404;SDS011;69733;48.744;9.176;2023-05-28T11:28:29;7.28;;;2.78;;
80404;SDS011;69733;48.744;9.176;2023-05-28T11:30:58;7.70;;;2.95;;
80404;SDS011;69733;48.744;9.176;2023-05-28T11:33:27;6.53;;;3.45;;
80404;SDS011;69733;48.744;9.176;2023-05-28T11:35:59;7.90;;;3.30;;
80404;SDS011;69733;48.744;9.176;2023-05-28T11:38:25;7.15;;;3.35;;
80404;SDS011;69733;48.744;9.176;2023-05-28T11:40:57;5.72;;;3.10;;
80404;SDS011;69733;48.744;9.176;2023-05-28T11:43:26;7.82;;;3.40;;
80404;SDS011;69733;48.744;9.176;2023-05-28T11:45:58;6.55;;;2.80;;
80404;SDS011;69733;48.744;9.176;2023-05-28T11:48:25;7.43;;;3.58;;
80404;SDS011;69733;48.744;9.176;2023-05-28T11:51:01;9.80;;;3.13;;
80404;SDS011;69733;48.744;9.176;2023-05-28T11:56:09;7.75;;;3.40;;
80404;SDS011;69733;48.744;9.176;2023-05-28T11:58:35;9.48;;;3.50;;
80404;SDS011;69733;48.744;9.176;2023-05-28T12:01:06;5.10;;;3.08;;
80404;SDS011;69733;48.744;9.176;2023-05-28T12:03:33;5.97;;;2.90;;
80404;SDS011;69733;48.744;9.176;2023-05-28T12:06:01;8.65;;;3.30;;
80404;SDS011;69733;48.744;9.176;2023-05-28T12:08:27;7.90;;;3.03;;
80404;SDS011;69733;48.744;9.176;2023-05-28T12:10:52;5.85;;;2.92;;
80404;SDS011;69733;48.744;9.176;2023-05-28T12:13:23;7.20;;;3.03;;
80404;SDS011;69733;48.744;9.176;2023-05-28T12:18:33;5.68;;;3.00;;
80404;SDS011;69733;48.744;9.176;2023-05-28T12:20:58;6.45;;;2.80;;
80404;SDS011;69733;48.744;9.176;2023-05-28T12:23:23;7.47;;;3.30;;
80404;SDS011;69733;48.744;9.176;2023-05-28T12:25:49;7.28;;;2.60;;
80404;SDS011;69733;48.744;9.176;2023-05-28T12:28:21;7.10;;;2.70;;
80404;SDS011;69733;48.744;9.176;2023-05-28T12:30:48;6.88;;;2.92;;
80404;SDS011;69733;48.744;9.176;2023-05-28T12:33:16;5.50;;;2.83;;
80404;SDS011;69733;48.744;9.176;2023-05-28T12:35:41;6.13;;;2.58;;
80404;SDS011;69733;48.744;9.176;2023-05-28T12:38:07;6.07;;;2.63;;
80404;SDS011;69733;48.744;9.176;2023-05-28T12:40:35;7.47;;;2.97;;
80404;SDS011;69733;48.744;9.176;2023-05-28T12:43:00;7.05;;;2.78;;
80404;SDS011;69733;48.744;9.176;2023-05-28T12:45:26;6.70;;;2.58;;
80404;SDS011;69733;48.744;9.176;2023-05-28T12:47:52;6.88;;;2.85;;
80404;SDS011;69733;48.744;9.176;2023-05-28T12:50:18;7.93;;;3.23;;
80404;SDS011;69733;48.744;9.176;2023-05-28T12:52:44;8.35;;;3.38;;
80404;SDS011;69733;48.744;9.176;2023-05-28T12:55:10;6.57;;;3.27;;
80404;SDS011;69733;48.744;9.176;2023-05-28T12:57:35;5.20;;;3.10;;
80404;SDS011;69733;48.744;9.176;2023-05-28T13:00:00;5.15;;;2.92;;
80404;SDS011;69733;48.744;9.176;2023-05-28T13:02:26;5.47;;;2.85;;
80404;SDS011;69733;48.744;9.176;2023-05-28T13:04:51;5.45;;;3.05;;
80404;SDS011;69733;48.744;9.176;2023-05-28T13:07:16;7.90;;;3.20;;
80404;SDS011;69733;48.744;9.176;2023-05-28T13:09:42;7.33;;;5.07;;
80404;SDS011;69733;48.744;9.176;2023-05-28T13:14:35;6.47;;;2.50;;
80404;SDS011;69733;48.744;9.176;2023-05-28T13:17:01;5.07;;;3.03;;
80404;SDS011;69733;48.744;9.176;2023-05-28T13:19:28;5.82;;;2.83;;
80404;SDS011;69733;48.744;9.176;2023-05-28T13:21:53;7.55;;;2.90;;
80404;SDS011;69733;48.744;9.176;2023-05-28T13:24:19;7.60;;;3.03;;
80404;SDS011;69733;48.744;9.176;2023-05-28T13:26:44;5.40;;;2.83;;
80404;SDS011;69733;48.744;9.176;2023-05-28T13:29:10;5.05;;;2.78;;
80404;SDS011;69733;48.744;9.176;2023-05-28T13:31:38;8.27;;;3.20;;
80404;SDS011;69733;48.744;9.176;2023-05-28T13:34:03;6.93;;;3.30;;
80404;SDS011;69733;48.744;9.176;2023-05-28T13:36:29;6.50;;;3.30;;
80404;SDS011;69733;48.744;9.176;2023-05-28T13:38:55;6.75;;;2.83;;
80404;SDS011;69733;48.744;9.176;2023-05-28T13:41:21;6.63;;;2.95;;
80404;SDS011;69733;48.744;9.176;2023-05-28T13:43:47;6.80;;;2.97;;
80404;SDS011;69733;48.744;9.176;2023-05-28T13:46:19;4.95;;;2.75;;
80404;SDS011;69733;48.744;9.176;2023-05-28T13:48:45;7.25;;;2.97;;
80404;SDS011;69733;48.744;9.176;2023-05-28T13:51:11;5.35;;;2.50;;
80404;SDS011;69733;48.744;9.176;2023-05-28T13:53:37;6.63;;;3.03;;
80404;SDS011;69733;48.744;9.176;2023-05-28T13:56:03;6.32;;;3.00;;
80404;SDS011;69733;48.744;9.176;2023-05-28T13:58:28;5.93;;;3.13;;
80404;SDS011;69733;48.744;9.176;2023-05-28T14:00:54;6.97;;;2.80;;
80404;SDS011;69733;48.744;9.176;2023-05-28T14:03:19;6.45;;;3.10;;
80404;SDS011;69733;48.744;9.176;2023-05-28T14:05:44;7.23;;;3.00;;
80404;SDS011;69733;48.744;9.176;2023-05-28T14:08:10;7.75;;;3.10;;
80404;SDS011;69733;48.744;9.176;2023-05-28T14:10:39;6.53;;;3.00;;
80404;SDS011;69733;48.744;9.176;2023-05-28T14:13:08;7.32;;;3.08;;
80404;SDS011;69733;48.744;9.176;2023-05-28T14:17:58;7.00;;;2.90;;
80404;SDS011;69733;48.744;9.176;2023-05-28T14:20:31;6.82;;;2.90;;
80404;SDS011;69733;48.744;9.176;2023-05-28T14:23:02;6.68;;;3.22;;
80404;SDS011;69733;48.744;9.176;2023-05-28T14:25:28;5.60;;;2.60;;
80404;SDS011;69733;48.744;9.176;2023-05-28T14:27:54;8.50;;;3.13;;
80404;SDS011;69733;48.744;9.176;2023-05-28T14:30:20;6.47;;;3.05;;
80404;SDS011;69733;48.744;9.176;2023-05-28T14:32:45;6.35;;;3.20;;
80404;SDS011;69733;48.744;9.176;2023-05-28T14:35:10;5.85;;;2.60;;
80404;SDS011;69733;48.744;9.176;2023-05-28T14:37:36;5.50;;;3.13;;
80404;SDS011;69733;48.744;9.176;2023-05-28T14:40:04;8.40;;;3.30;;
80404;SDS011;69733;48.744;9.176;2023-05-28T14:42:30;7.72;;;3.03;;
80404;SDS011;69733;48.744;9.176;2023-05-28T14:44:58;6.63;;;3.10;;
80404;SDS011;69733;48.744;9.176;2023-05-28T14:47:26;6.43;;;2.90;;
80404;SDS011;69733;48.744;9.176;2023-05-28T14:49:52;5.85;;;2.90;;
80404;SDS011;69733;48.744;9.176;2023-05-28T14:52:24;5.40;;;2.65;;
80404;SDS011;69733;48.744;9.176;2023-05-28T14:54:51;10.18;;;3.50;;
80404;SDS011;69733;48.744;9.176;2023-05-28T14:57:17;5.68;;;2.83;;
80404;SDS011;69733;48.744;9.176;2023-05-28T14:59:43;5.05;;;2.78;;
80404;SDS011;69733;48.744;9.176;2023-05-28T15:02:09;4.75;;;2.60;;
80404;SDS011;69733;48.744;9.176;2023-05-28T15:04:35;6.33;;;3.33;;
80404;SDS011;69733;48.744;9.176;2023-05-28T15:07:00;6.17;;;2.83;;
80404;SDS011;69733;48.744;9.176;2023-05-28T15:09:26;5.70;;;2.67;;
80404;SDS011;69733;48.744;9.176;2023-05-28T15:11:55;5.47;;;3.00;;